Time;durP1;ratioP1;P1;durP2;ratioP2;P2;SDS_P1;SDS_P2;PMS_P1;PMS_P2;Temp;Humidity;BMP_temperature;BMP_pressure;BME280_temperature;BME280_humidity;BME280_pressure;Samples;Min_cycle;Max_cycle;Signal;HPM_P1;HPM_P2
2023/01/13 00:01:23;;;;;;;1.67;0.70;;;;;;;;;;4973917;28;20027;-75
2023/01/13 00:03:49;;;;;;;1.35;0.70;;;;;;;;;;4972641;28;20031;-75
2023/01/13 00:06:18;;;;;;;1.45;0.70;;;;;;;;;;4974156;28;20046;-76
2023/01/13 00:08:43;;;;;;;1.40;0.90;;;;;;;;;;4988971;28;20027;-75
2023/01/13 00:11:10;;;;;;;2.85;1.00;;;;;;;;;;4973692;28;20058;-75
2023/01/13 00:13:37;;;;;;;2.72;0.70;;;;;;;;;;4972052;28;20058;-74
2023/01/13 00:16:08;;;;;;;2.92;0.95;;;;;;;;;;4968687;28;20054;-75
2023/01/13 00:18:35;;;;;;;2.45;0.80;;;;;;;;;;4973341;28;20110;-75
2023/01/13 00:21:02;;;;;;;3.63;0.90;;;;;;;;;;4971872;28;20492;-74
2023/01/13 00:44:21;;;;;;;2.92;1.00;;;;;;;;;;4974106;28;20033;-74
2023/01/13 00:46:46;;;;;;;1.60;0.90;;;;;;;;;;4972738;28;20426;-75
2023/01/13 00:49:11;;;;;;;1.65;0.80;;;;;;;;;;4972367;28;20027;-74
2023/01/13 00:51:37;;;;;;;3.58;1.00;;;;;;;;;;4971359;28;20019;-74
2023/01/13 00:54:03;;;;;;;2.13;1.40;;;;;;;;;;4970524;28;20034;-74
2023/01/13 00:56:28;;;;;;;1.73;0.82;;;;;;;;;;4987741;28;20484;-75
2023/01/13 00:58:55;;;;;;;1.63;0.70;;;;;;;;;;4972383;28;20031;-73
2023/01/13 01:01:23;;;;;;;2.22;0.77;;;;;;;;;;4972140;28;20023;-75
2023/01/13 01:03:53;;;;;;;2.42;0.90;;;;;;;;;;4982796;28;20059;-74
2023/01/13 01:06:28;;;;;;;2.75;1.05;;;;;;;;;;4971113;28;20026;-75
2023/01/13 01:08:54;;;;;;;1.33;0.70;;;;;;;;;;4987347;28;20046;-74
2023/01/13 01:11:26;;;;;;;0.85;0.77;;;;;;;;;;4969723;28;20394;-74
2023/01/13 01:13:53;;;;;;;1.67;0.90;;;;;;;;;;4965786;28;20045;-75
2023/01/13 01:16:22;;;;;;;1.27;0.60;;;;;;;;;;4984808;28;20034;-74
2023/01/13 01:18:48;;;;;;;2.03;0.80;;;;;;;;;;4970022;28;20151;-75
2023/01/13 01:21:15;;;;;;;4.60;1.00;;;;;;;;;;4987053;28;20026;-75
2023/01/13 01:23:41;;;;;;;1.80;0.80;;;;;;;;;;4970218;28;20031;-74
2023/01/13 01:26:11;;;;;;;1.27;0.70;;;;;;;;;;4972266;28;20034;-75
2023/01/13 01:28:37;;;;;;;1.70;0.70;;;;;;;;;;4971253;28;20381;-75
2023/01/13 01:31:23;;;;;;;2.05;0.77;;;;;;;;;;4971446;28;20027;-75
2023/01/13 01:33:49;;;;;;;2.13;0.88;;;;;;;;;;4968767;28;20026;-75
2023/01/13 01:36:17;;;;;;;1.30;0.90;;;;;;;;;;4970798;28;20031;-75
2023/01/13 01:38:49;;;;;;;3.30;0.90;;;;;;;;;;4972017;28;20094;-75
2023/01/13 01:41:26;;;;;;;0.98;0.75;;;;;;;;;;4966678;28;20033;-78
2023/01/13 01:44:05;;;;;;;2.83;0.95;;;;;;;;;;4970500;28;20033;-75
2023/01/13 01:46:30;;;;;;;2.00;0.80;;;;;;;;;;4972254;28;20162;-74
2023/01/13 01:49:16;;;;;;;1.85;0.98;;;;;;;;;;4968665;28;20536;-75
2023/01/13 01:52:08;;;;;;;2.05;0.80;;;;;;;;;;4961309;28;20027;-75
2023/01/13 01:54:47;;;;;;;0.70;0.70;;;;;;;;;;4969779;28;20453;-74
2023/01/13 01:57:18;;;;;;;1.50;0.80;;;;;;;;;;4970904;28;20058;-74
2023/01/13 01:59:44;;;;;;;3.58;1.00;;;;;;;;;;4969463;28;20023;-75
2023/01/13 02:02:10;;;;;;;2.22;0.70;;;;;;;;;;4971808;28;20441;-74
2023/01/13 02:04:39;;;;;;;2.88;0.75;;;;;;;;;;4969270;28;20034;-75
2023/01/13 02:07:05;;;;;;;3.85;0.70;;;;;;;;;;4970510;28;20054;-75
2023/01/13 02:09:32;;;;;;;2.60;0.93;;;;;;;;;;4970408;28;20026;-75
2023/01/13 02:14:43;;;;;;;3.47;1.00;;;;;;;;;;4969832;28;20085;-75
2023/01/13 02:17:34;;;;;;;3.65;0.73;;;;;;;;;;4970923;28;20385;-75
2023/01/13 02:20:30;;;;;;;2.10;0.68;;;;;;;;;;4965074;28;20031;-75
2023/01/13 02:26:36;;;;;;;1.55;0.90;;;;;;;;;;4986011;28;20035;-75
2023/01/13 02:33:02;;;;;;;1.65;0.93;;;;;;;;;;4969159;28;20558;-74
2023/01/13 02:35:27;;;;;;;3.58;1.20;;;;;;;;;;4965379;28;20590;-74
2023/01/13 02:37:55;;;;;;;3.22;0.80;;;;;;;;;;4969191;28;20109;-74
2023/01/13 02:40:27;;;;;;;1.05;0.80;;;;;;;;;;4959625;28;20035;-74
2023/01/13 02:46:17;;;;;;;2.20;0.90;;;;;;;;;;4954018;29;20031;-75
2023/01/13 02:48:45;;;;;;;2.38;0.80;;;;;;;;;;4965675;28;20076;-74
2023/01/13 02:51:18;;;;;;;0.80;0.80;;;;;;;;;;4975539;28;20029;-75
2023/01/13 02:53:52;;;;;;;1.30;0.85;;;;;;;;;;4972975;28;20063;-75
2023/01/13 02:56:19;;;;;;;3.00;0.88;;;;;;;;;;4986317;28;20027;-75
2023/01/13 02:58:47;;;;;;;2.33;0.90;;;;;;;;;;4974293;28;20031;-74
2023/01/13 03:01:13;;;;;;;2.05;0.80;;;;;;;;;;4975511;28;20030;-75
2023/01/13 03:03:38;;;;;;;3.08;1.00;;;;;;;;;;4975050;28;20474;-76
2023/01/13 03:06:28;;;;;;;2.13;1.20;;;;;;;;;;4988252;28;20562;-75
2023/01/13 03:09:03;;;;;;;2.90;0.93;;;;;;;;;;4971046;28;20031;-74
2023/01/13 03:11:38;;;;;;;1.98;0.93;;;;;;;;;;4975341;28;20023;-75
2023/01/13 03:14:10;;;;;;;1.38;0.80;;;;;;;;;;4975296;28;20062;-74
2023/01/13 03:17:13;;;;;;;1.42;0.70;;;;;;;;;;4975245;28;20031;-75
2023/01/13 03:19:43;;;;;;;2.05;1.00;;;;;;;;;;4973652;28;20048;-74
2023/01/13 03:22:16;;;;;;;1.52;0.90;;;;;;;;;;4974942;28;20509;-74
2023/01/13 03:24:49;;;;;;;2.00;0.90;;;;;;;;;;4975921;28;20482;-74
2023/01/13 03:27:28;;;;;;;2.45;0.82;;;;;;;;;;4990510;28;20054;-75
2023/01/13 03:30:03;;;;;;;2.08;0.80;;;;;;;;;;4972965;28;20027;-76
2023/01/13 03:32:36;;;;;;;5.10;1.63;;;;;;;;;;4969770;28;20041;-75
2023/01/13 03:35:08;;;;;;;4.30;0.82;;;;;;;;;;4974390;28;20081;-75
2023/01/13 03:37:38;;;;;;;0.70;0.70;;;;;;;;;;4974391;28;20386;-75
2023/01/13 03:40:13;;;;;;;3.25;0.80;;;;;;;;;;4989161;28;20030;-74
2023/01/13 03:44:20;;;;;;;1.15;0.50;;;;;;;;;;4969820;28;20102;-75
2023/01/13 03:45:34;;;;;;;1.63;0.73;;;;;;;;;;4971752;28;20065;-74
2023/01/13 03:48:05;;;;;;;2.63;0.80;;;;;;;;;;4972616;28;20039;-74
2023/01/13 03:50:37;;;;;;;2.15;0.70;;;;;;;;;;4973338;28;20077;-74
2023/01/13 03:53:14;;;;;;;1.17;0.88;;;;;;;;;;4973345;28;20474;-75
2023/01/13 03:55:46;;;;;;;1.67;0.68;;;;;;;;;;4982952;28;20517;-75
2023/01/13 03:58:15;;;;;;;0.75;0.70;;;;;;;;;;4973670;28;20058;-75
2023/01/13 04:01:00;;;;;;;1.38;0.60;;;;;;;;;;4972284;28;20030;-75
2023/01/13 04:03:53;;;;;;;0.80;0.60;;;;;;;;;;4973674;28;20041;-74
2023/01/13 04:06:30;;;;;;;3.25;0.80;;;;;;;;;;4984127;28;20045;-74
2023/01/13 04:09:05;;;;;;;2.53;1.13;;;;;;;;;;4965810;28;20073;-75
2023/01/13 04:11:41;;;;;;;3.55;0.73;;;;;;;;;;4967027;28;20031;-76
2023/01/13 04:14:09;;;;;;;2.35;0.60;;;;;;;;;;4971972;28;20031;-75
2023/01/13 04:16:35;;;;;;;1.70;0.63;;;;;;;;;;4973572;28;20073;-74
2023/01/13 04:19:01;;;;;;;1.83;1.05;;;;;;;;;;4988306;28;20113;-74
2023/01/13 04:21:27;;;;;;;2.85;1.17;;;;;;;;;;4971579;28;20466;-75
2023/01/13 04:23:53;;;;;;;0.57;0.55;;;;;;;;;;4966058;28;20027;-75
2023/01/13 04:26:19;;;;;;;3.92;0.90;;;;;;;;;;4973576;28;20112;-75
2023/01/13 04:28:50;;;;;;;1.65;0.70;;;;;;;;;;4971681;28;20030;-75
2023/01/13 04:31:16;;;;;;;1.98;0.65;;;;;;;;;;4973223;28;20094;-75
2023/01/13 04:33:42;;;;;;;0.82;0.60;;;;;;;;;;4968326;28;20121;-74
2023/01/13 04:36:08;;;;;;;1.80;0.88;;;;;;;;;;4971720;28;20109;-74
2023/01/13 04:38:33;;;;;;;0.73;0.65;;;;;;;;;;4973470;28;20031;-74
2023/01/13 04:40:59;;;;;;;1.92;0.80;;;;;;;;;;4972076;28;20467;-75
2023/01/13 04:43:25;;;;;;;0.70;0.70;;;;;;;;;;4972412;28;20034;-74
2023/01/13 04:45:50;;;;;;;1.05;0.70;;;;;;;;;;4972435;28;20022;-74
2023/01/13 04:48:16;;;;;;;1.05;0.60;;;;;;;;;;4973431;28;20034;-74
2023/01/13 04:50:41;;;;;;;0.50;0.50;;;;;;;;;;4973184;28;20489;-75
2023/01/13 04:53:07;;;;;;;2.30;0.80;;;;;;;;;;4971216;28;20051;-75
2023/01/13 04:55:32;;;;;;;2.05;0.90;;;;;;;;;;4973532;28;20034;-74
2023/01/13 04:58:05;;;;;;;1.27;0.60;;;;;;;;;;4973001;28;20031;-74
2023/01/13 05:00:32;;;;;;;5.97;1.50;;;;;;;;;;4972696;28;20026;-73
2023/01/13 05:03:00;;;;;;;1.63;1.08;;;;;;;;;;4972141;28;20030;-74
2023/01/13 05:05:27;;;;;;;1.95;0.60;;;;;;;;;;4990033;28;20022;-75
2023/01/13 05:07:53;;;;;;;0.60;0.55;;;;;;;;;;4974768;28;20035;-74
2023/01/13 05:10:19;;;;;;;1.27;0.73;;;;;;;;;;4977026;28;20041;-74
2023/01/13 05:18:14;;;;;;;1.35;0.85;;;;;;;;;;4967992;28;20038;-74
2023/01/13 05:20:40;;;;;;;1.27;0.80;;;;;;;;;;4971078;28;20077;-74
2023/01/13 05:25:50;;;;;;;1.98;0.77;;;;;;;;;;4973016;28;20185;-73
2023/01/13 05:28:16;;;;;;;0.65;0.65;;;;;;;;;;4967956;28;20481;-74
2023/01/13 05:30:44;;;;;;;1.52;1.27;;;;;;;;;;4971164;28;20037;-75
2023/01/13 05:33:15;;;;;;;2.28;0.73;;;;;;;;;;4968524;28;20129;-75
2023/01/13 05:35:43;;;;;;;0.70;0.70;;;;;;;;;;4983706;28;20023;-75
2023/01/13 05:38:09;;;;;;;2.30;0.88;;;;;;;;;;4966895;28;20051;-75
2023/01/13 05:43:25;;;;;;;0.65;0.65;;;;;;;;;;4971475;28;20564;-75
2023/01/13 05:46:02;;;;;;;0.93;0.70;;;;;;;;;;4971877;28;20106;-75
2023/01/13 05:48:33;;;;;;;0.90;0.85;;;;;;;;;;4970567;28;20038;-74
2023/01/13 05:51:00;;;;;;;0.60;0.60;;;;;;;;;;4961866;28;20027;-75
2023/01/13 05:53:27;;;;;;;2.05;0.88;;;;;;;;;;4971369;28;20129;-74
2023/01/13 05:55:53;;;;;;;0.85;0.60;;;;;;;;;;4971308;28;20504;-75
2023/01/13 05:58:21;;;;;;;2.72;1.70;;;;;;;;;;4972341;28;20152;-76
2023/01/13 06:00:48;;;;;;;3.65;1.90;;;;;;;;;;4971403;28;20044;-74
2023/01/13 06:03:14;;;;;;;0.70;0.70;;;;;;;;;;4971353;28;20031;-76
2023/01/13 06:05:41;;;;;;;0.70;0.70;;;;;;;;;;4971978;28;20023;-75
2023/01/13 06:08:08;;;;;;;1.38;0.70;;;;;;;;;;4971662;28;20034;-75
2023/01/13 06:10:35;;;;;;;0.93;0.57;;;;;;;;;;4971428;28;20026;-75
2023/01/13 06:13:01;;;;;;;1.83;0.60;;;;;;;;;;4971372;28;20426;-75
2023/01/13 06:15:27;;;;;;;1.38;0.70;;;;;;;;;;4971063;28;21601;-75
2023/01/13 06:17:53;;;;;;;1.13;0.70;;;;;;;;;;4983164;28;20031;-74
2023/01/13 06:20:19;;;;;;;0.65;0.65;;;;;;;;;;4970332;28;20031;-75
2023/01/13 06:22:47;;;;;;;0.93;0.60;;;;;;;;;;4985709;28;20035;-75
2023/01/13 06:25:38;;;;;;;2.13;1.00;;;;;;;;;;4971522;28;20382;-75
2023/01/13 06:28:03;;;;;;;1.13;0.70;;;;;;;;;;4968182;28;20026;-75
2023/01/13 06:30:37;;;;;;;0.90;0.75;;;;;;;;;;4967182;28;20101;-75
2023/01/13 06:33:07;;;;;;;0.80;0.70;;;;;;;;;;4965819;28;20102;-74
2023/01/13 06:35:35;;;;;;;0.77;0.70;;;;;;;;;;4967120;28;20057;-76
2023/01/13 06:38:04;;;;;;;0.85;0.73;;;;;;;;;;4959662;28;20022;-76
2023/01/13 06:40:29;;;;;;;1.38;0.70;;;;;;;;;;4987205;28;20222;-74
2023/01/13 06:43:14;;;;;;;0.88;0.70;;;;;;;;;;4968206;28;20034;-75
2023/01/13 06:45:44;;;;;;;0.98;0.88;;;;;;;;;;4963023;28;20027;-76
2023/01/13 06:48:09;;;;;;;0.60;0.60;;;;;;;;;;4985772;28;20031;-75
2023/01/13 06:50:35;;;;;;;0.75;0.60;;;;;;;;;;4965651;28;20023;-75
2023/01/13 06:53:00;;;;;;;2.38;0.60;;;;;;;;;;4970949;28;20374;-75
2023/01/13 06:55:26;;;;;;;0.82;0.70;;;;;;;;;;4969217;28;20325;-75
2023/01/13 06:57:54;;;;;;;1.35;0.70;;;;;;;;;;4965491;28;20027;-76
2023/01/13 07:00:21;;;;;;;0.50;0.50;;;;;;;;;;4982140;28;20042;-76
2023/01/13 07:02:47;;;;;;;0.50;0.50;;;;;;;;;;4967682;28;20099;-76
2023/01/13 07:05:13;;;;;;;2.15;1.20;;;;;;;;;;4970539;28;20097;-76
2023/01/13 07:07:39;;;;;;;2.75;1.25;;;;;;;;;;4970798;28;20522;-76
2023/01/13 07:10:08;;;;;;;1.15;1.00;;;;;;;;;;4970601;28;20099;-75
2023/01/13 07:15:17;;;;;;;0.60;0.60;;;;;;;;;;4970155;28;20034;-76
2023/01/13 07:15:22;;;;;;;0.70;0.70;;;;;;;;;;4965936;28;20046;-77
2023/01/13 07:17:47;;;;;;;0.90;0.70;;;;;;;;;;4966191;28;20031;-75
2023/01/13 07:20:14;;;;;;;0.65;0.60;;;;;;;;;;4969346;28;20110;-75
2023/01/13 07:22:39;;;;;;;3.38;0.90;;;;;;;;;;4984390;28;20043;-76
2023/01/13 07:25:05;;;;;;;1.52;1.08;;;;;;;;;;4964258;28;20078;-79
2023/01/13 07:27:42;;;;;;;1.48;0.60;;;;;;;;;;4969151;28;20037;-79
2023/01/13 07:30:11;;;;;;;1.05;0.70;;;;;;;;;;4967677;28;20027;-76
2023/01/13 07:32:46;;;;;;;0.70;0.70;;;;;;;;;;4976852;28;20027;-77
2023/01/13 07:35:23;;;;;;;0.73;0.70;;;;;;;;;;4975224;28;20031;-77
2023/01/13 07:37:56;;;;;;;0.60;0.60;;;;;;;;;;4979583;28;20099;-79
2023/01/13 07:40:46;;;;;;;0.90;0.77;;;;;;;;;;4975859;28;20066;-79
2023/01/13 07:46:13;;;;;;;0.55;0.55;;;;;;;;;;4969520;28;20121;-78
2023/01/13 07:48:41;;;;;;;1.73;1.15;;;;;;;;;;4970265;28;20026;-78
2023/01/13 07:51:18;;;;;;;1.02;0.70;;;;;;;;;;4977367;28;20042;-78
2023/01/13 07:53:58;;;;;;;0.40;0.40;;;;;;;;;;4972637;28;20022;-77
2023/01/13 07:56:26;;;;;;;;;;;;;;;;;;4973661;28;20070;-79
2023/01/13 08:01:31;;;;;;;0.70;0.70;;;;;;;;;;4976609;28;20747;-78
2023/01/13 08:04:06;;;;;;;1.00;0.70;;;;;;;;;;4971814;28;20026;-77
2023/01/13 08:06:35;;;;;;;1.02;0.70;;;;;;;;;;4977927;28;20101;-78
2023/01/13 08:09:01;;;;;;;0.50;0.50;;;;;;;;;;4975643;28;20031;-80
2023/01/13 08:11:36;;;;;;;0.80;0.50;;;;;;;;;;4972031;28;20062;-77
2023/01/13 08:14:01;;;;;;;0.80;0.80;;;;;;;;;;4976587;28;20038;-77
2023/01/13 08:16:55;;;;;;;0.93;0.90;;;;;;;;;;4977530;28;20027;-79
2023/01/13 08:19:20;;;;;;;0.68;0.68;;;;;;;;;;4978186;28;20065;-78
2023/01/13 08:21:48;;;;;;;0.57;0.57;;;;;;;;;;4976047;28;20018;-75
2023/01/13 08:24:13;;;;;;;0.55;0.55;;;;;;;;;;4971609;28;20435;-79
2023/01/13 08:26:38;;;;;;;0.70;0.70;;;;;;;;;;4974899;28;20077;-78
2023/01/13 08:29:04;;;;;;;1.02;1.00;;;;;;;;;;4975737;28;20092;-78
2023/01/13 08:31:29;;;;;;;1.05;0.80;;;;;;;;;;4977421;28;20026;-78
2023/01/13 08:33:55;;;;;;;0.70;0.70;;;;;;;;;;4972086;28;20031;-79
2023/01/13 08:36:20;;;;;;;0.60;0.60;;;;;;;;;;4979208;28;20042;-77
2023/01/13 08:38:45;;;;;;;0.55;0.55;;;;;;;;;;4976134;28;20023;-79
2023/01/13 08:41:53;;;;;;;0.60;0.60;;;;;;;;;;4968401;28;20054;-79
2023/01/13 08:44:00;;;;;;;0.80;0.73;;;;;;;;;;4974569;28;20037;-77
2023/01/13 08:46:26;;;;;;;4.32;0.98;;;;;;;;;;4974389;28;20038;-79
2023/01/13 08:48:51;;;;;;;0.90;0.90;;;;;;;;;;4972244;28;20074;-79
2023/01/13 08:51:16;;;;;;;1.00;1.00;;;;;;;;;;4986285;28;20379;-74
2023/01/13 08:53:42;;;;;;;1.00;1.00;;;;;;;;;;4974641;28;20038;-77
2023/01/13 08:56:10;;;;;;;4.93;1.02;;;;;;;;;;4972142;28;20113;-77
2023/01/13 08:58:35;;;;;;;1.77;0.95;;;;;;;;;;4980275;28;20494;-76
2023/01/13 09:01:05;;;;;;;0.90;0.90;;;;;;;;;;4967399;28;20065;-74
2023/01/13 09:03:31;;;;;;;1.13;1.02;;;;;;;;;;4963866;28;20145;-74
2023/01/13 09:05:56;;;;;;;1.02;1.00;;;;;;;;;;4970366;28;20102;-77
2023/01/13 09:08:22;;;;;;;1.15;1.10;;;;;;;;;;4962142;28;20038;-76
2023/01/13 09:10:49;;;;;;;1.30;1.20;;;;;;;;;;4970033;28;20035;-74
2023/01/13 09:13:15;;;;;;;1.00;1.00;;;;;;;;;;4984678;28;20469;-77
2023/01/13 09:15:47;;;;;;;1.10;1.10;;;;;;;;;;4967627;28;20089;-74
2023/01/13 09:18:15;;;;;;;0.98;0.98;;;;;;;;;;4985070;28;20026;-75
2023/01/13 09:20:43;;;;;;;1.30;1.13;;;;;;;;;;4969931;28;20033;-76
2023/01/13 09:23:09;;;;;;;1.50;1.40;;;;;;;;;;4966356;28;20049;-75
2023/01/13 09:25:36;;;;;;;2.47;1.70;;;;;;;;;;4982956;28;20473;-76
2023/01/13 09:28:03;;;;;;;0.90;0.90;;;;;;;;;;4964622;28;20038;-75
2023/01/13 09:30:32;;;;;;;1.25;1.15;;;;;;;;;;4970749;28;20030;-77
2023/01/13 09:35:44;;;;;;;2.28;1.45;;;;;;;;;;4968238;28;20033;-76
2023/01/13 09:38:12;;;;;;;1.63;1.20;;;;;;;;;;4967297;28;20106;-76
2023/01/13 09:40:40;;;;;;;0.80;0.80;;;;;;;;;;4969477;28;20033;-77
2023/01/13 09:49:04;;;;;;;2.83;1.77;;;;;;;;;;4969056;28;20470;-75
2023/01/13 09:51:35;;;;;;;1.48;1.38;;;;;;;;;;4969160;28;20035;-75
2023/01/13 09:54:27;;;;;;;4.45;2.28;;;;;;;;;;4966833;28;20058;-77
2023/01/13 09:56:53;;;;;;;2.88;1.73;;;;;;;;;;4963979;28;20031;-75
2023/01/13 09:59:18;;;;;;;2.53;1.33;;;;;;;;;;4970859;28;20019;-75
2023/01/13 10:01:53;;;;;;;3.20;1.70;;;;;;;;;;4971675;28;20058;-75
2023/01/13 10:04:19;;;;;;;9.07;3.15;;;;;;;;;;4985565;28;20077;-76
2023/01/13 10:06:50;;;;;;;10.30;3.85;;;;;;;;;;4968636;28;20679;-76
2023/01/13 10:09:25;;;;;;;5.35;3.00;;;;;;;;;;4970041;28;20371;-76
2023/01/13 10:14:53;;;;;;;1.50;1.40;;;;;;;;;;4963643;28;20037;-75
2023/01/13 10:17:24;;;;;;;3.78;2.60;;;;;;;;;;4980794;28;20125;-75
2023/01/13 10:20:14;;;;;;;4.65;2.20;;;;;;;;;;4967213;28;20147;-75
2023/01/13 10:23:18;;;;;;;4.10;2.55;;;;;;;;;;4968114;28;20077;-75
2023/01/13 10:26:01;;;;;;;4.28;2.28;;;;;;;;;;4955509;28;20117;-75
2023/01/13 10:28:27;;;;;;;2.13;1.92;;;;;;;;;;4985668;28;20030;-75
2023/01/13 10:30:52;;;;;;;2.20;1.80;;;;;;;;;;4969526;28;20486;-77
2023/01/13 10:33:24;;;;;;;1.77;1.50;;;;;;;;;;4963784;28;20622;-76
2023/01/13 10:35:52;;;;;;;6.18;1.52;;;;;;;;;;4969118;28;20035;-75
2023/01/13 10:38:25;;;;;;;1.98;1.60;;;;;;;;;;4969766;28;20050;-76
2023/01/13 10:41:01;;;;;;;1.95;1.60;;;;;;;;;;4968448;28;20031;-76
2023/01/13 10:43:28;;;;;;;1.30;1.20;;;;;;;;;;4967505;28;20058;-76
2023/01/13 10:45:59;;;;;;;2.58;2.00;;;;;;;;;;4967923;28;20081;-76
2023/01/13 10:48:37;;;;;;;2.30;2.10;;;;;;;;;;4966523;28;20037;-75
2023/01/13 10:51:16;;;;;;;2.10;1.70;;;;;;;;;;4979133;28;20027;-76
2023/01/13 10:53:45;;;;;;;3.05;2.75;;;;;;;;;;4981154;28;20085;-75
2023/01/13 10:56:16;;;;;;;4.50;2.13;;;;;;;;;;4983144;28;20049;-76
2023/01/13 10:58:42;;;;;;;3.28;2.60;;;;;;;;;;4969493;28;20174;-75
2023/01/13 11:01:29;;;;;;;2.88;2.28;;;;;;;;;;4968440;28;20158;-75
2023/01/13 11:03:55;;;;;;;3.42;2.05;;;;;;;;;;4967730;28;20067;-75
2023/01/13 11:06:24;;;;;;;1.88;1.67;;;;;;;;;;4970730;28;20062;-75
2023/01/13 11:08:56;;;;;;;1.65;1.55;;;;;;;;;;4971222;28;20046;-75
2023/01/13 11:11:44;;;;;;;1.38;1.27;;;;;;;;;;4970284;28;20080;-74
2023/01/13 11:14:40;;;;;;;2.47;1.50;;;;;;;;;;4988196;28;20022;-76
2023/01/13 11:17:08;;;;;;;2.60;1.70;;;;;;;;;;4987907;28;20397;-75
2023/01/13 11:19:37;;;;;;;2.28;1.63;;;;;;;;;;4974445;28;20026;-74
2023/01/13 11:22:13;;;;;;;2.00;1.80;;;;;;;;;;4973647;28;20073;-77
2023/01/13 11:24:55;;;;;;;2.28;2.00;;;;;;;;;;4972107;28;20504;-76
2023/01/13 11:27:54;;;;;;;3.72;2.15;;;;;;;;;;4974344;28;20377;-76
2023/01/13 11:30:45;;;;;;;1.63;1.52;;;;;;;;;;4965679;28;20305;-74
2023/01/13 11:33:14;;;;;;;3.47;2.30;;;;;;;;;;4972300;28;20031;-75
2023/01/13 11:35:46;;;;;;;1.63;1.20;;;;;;;;;;4968780;28;20026;-75
2023/01/13 11:38:33;;;;;;;1.77;1.40;;;;;;;;;;4988923;28;20027;-75
2023/01/13 11:41:15;;;;;;;4.15;1.80;;;;;;;;;;4974700;28;20027;-75
2023/01/13 11:44:05;;;;;;;2.90;1.73;;;;;;;;;;4988265;28;20027;-76
2023/01/13 11:46:31;;;;;;;1.42;1.33;;;;;;;;;;4971517;28;20065;-75
2023/01/13 11:48:58;;;;;;;2.05;1.60;;;;;;;;;;4970983;28;20030;-75
2023/01/13 11:51:26;;;;;;;1.50;1.40;;;;;;;;;;4986515;28;20066;-75
2023/01/13 11:54:44;;;;;;;5.72;3.03;;;;;;;;;;4972262;28;20062;-75
2023/01/13 11:57:24;;;;;;;3.30;2.00;;;;;;;;;;4971725;28;20045;-75
2023/01/13 12:00:11;;;;;;;6.25;3.00;;;;;;;;;;4971620;28;20038;-75
2023/01/13 12:03:00;;;;;;;1.25;1.15;;;;;;;;;;4981752;28;20097;-76
2023/01/13 12:05:58;;;;;;;1.50;1.27;;;;;;;;;;4972624;28;20054;-75
2023/01/13 12:08:41;;;;;;;3.22;1.75;;;;;;;;;;4968825;28;20027;-75
2023/01/13 12:11:29;;;;;;;3.67;1.80;;;;;;;;;;4970496;28;20050;-75
2023/01/13 12:14:19;;;;;;;3.55;1.67;;;;;;;;;;4970653;28;20132;-75
2023/01/13 12:16:48;;;;;;;1.77;1.60;;;;;;;;;;4972730;28;20062;-76
2023/01/13 12:19:29;;;;;;;5.47;1.30;;;;;;;;;;4974337;28;20031;-76
2023/01/13 12:22:19;;;;;;;2.63;1.35;;;;;;;;;;4972345;28;20035;-75
2023/01/13 12:24:53;;;;;;;1.10;1.10;;;;;;;;;;4972399;28;20033;-76
2023/01/13 12:27:45;;;;;;;1.75;1.20;;;;;;;;;;4981363;28;20023;-76
2023/01/13 12:30:25;;;;;;;3.95;1.02;;;;;;;;;;4973771;28;20035;-74
2023/01/13 12:32:56;;;;;;;1.65;1.30;;;;;;;;;;4988271;28;20478;-74
2023/01/13 12:35:44;;;;;;;2.78;1.55;;;;;;;;;;4973756;28;20034;-75
2023/01/13 12:38:31;;;;;;;2.60;1.48;;;;;;;;;;4973625;28;20039;-75
2023/01/13 12:41:05;;;;;;;1.15;1.15;;;;;;;;;;4988342;28;20513;-75
2023/01/13 12:46:22;;;;;;;4.28;1.63;;;;;;;;;;4966000;28;20394;-73
2023/01/13 12:48:51;;;;;;;3.05;1.30;;;;;;;;;;4967047;28;20030;-74
2023/01/13 12:51:27;;;;;;;3.08;1.48;;;;;;;;;;4967156;28;20059;-75
2023/01/13 12:53:54;;;;;;;4.63;1.60;;;;;;;;;;4971259;28;20023;-75
2023/01/13 12:56:33;;;;;;;4.32;1.33;;;;;;;;;;4964471;28;20418;-74
2023/01/13 12:59:32;;;;;;;4.82;1.23;;;;;;;;;;4965241;28;20027;-76
2023/01/13 13:02:10;;;;;;;4.00;1.90;;;;;;;;;;4964672;28;20031;-74
2023/01/13 13:04:50;;;;;;;2.55;1.70;;;;;;;;;;4972269;28;20035;-74
2023/01/13 13:07:31;;;;;;;2.17;1.48;;;;;;;;;;4970873;28;20026;-74
2023/01/13 13:10:00;;;;;;;1.60;1.50;;;;;;;;;;4982801;28;20176;-76
2023/01/13 13:15:29;;;;;;;4.93;2.43;;;;;;;;;;4972369;28;20049;-74
2023/01/13 13:18:15;;;;;;;3.17;1.50;;;;;;;;;;4971525;28;20345;-76
2023/01/13 13:20:54;;;;;;;3.13;1.95;;;;;;;;;;4956912;28;20027;-74
2023/01/13 13:23:44;;;;;;;1.45;1.20;;;;;;;;;;4958901;28;20381;-75
2023/01/13 13:26:12;;;;;;;;;;;;;;;;;;4970823;28;20031;-75
2023/01/13 13:28:52;;;;;;;3.97;1.58;;;;;;;;;;4969187;28;19914;-76
2023/01/13 13:31:26;;;;;;;3.72;1.70;;;;;;;;;;4967658;28;20027;-73
2023/01/13 13:34:04;;;;;;;2.08;1.25;;;;;;;;;;4964214;28;20399;-74
2023/01/13 13:36:52;;;;;;;5.45;1.70;;;;;;;;;;4979227;28;20058;-74
2023/01/13 13:47:40;;;;;;;3.28;1.40;;;;;;;;;;4966440;28;20042;-77
2023/01/13 13:50:13;;;;;;;3.80;1.88;;;;;;;;;;4965536;28;20443;-75
2023/01/13 13:52:54;;;;;;;3.58;1.30;;;;;;;;;;4961858;28;20490;-76
2023/01/13 13:55:24;;;;;;;3.50;1.10;;;;;;;;;;4959135;28;20069;-76
2023/01/13 13:57:52;;;;;;;2.13;1.20;;;;;;;;;;4966236;28;20533;-75
2023/01/13 14:00:29;;;;;;;2.97;1.20;;;;;;;;;;4964993;28;20393;-75
2023/01/13 14:03:02;;;;;;;6.22;1.10;;;;;;;;;;4985068;28;20527;-75
2023/01/13 14:05:33;;;;;;;6.28;1.65;;;;;;;;;;4983836;28;20042;-75
2023/01/13 14:08:16;;;;;;;10.57;3.33;;;;;;;;;;4964429;28;20503;-77
2023/01/13 14:10:44;;;;;;;6.15;1.90;;;;;;;;;;4964048;28;20034;-74
2023/01/13 14:13:29;;;;;;;28.50;7.97;;;;;;;;;;4982097;28;20034;-76
2023/01/13 14:15:56;;;;;;;23.45;5.55;;;;;;;;;;4962488;28;20440;-75
2023/01/13 14:18:22;;;;;;;30.15;7.63;;;;;;;;;;4969273;28;20054;-74
2023/01/13 14:20:58;;;;;;;11.32;3.40;;;;;;;;;;4970278;28;20039;-75
2023/01/13 14:23:31;;;;;;;5.85;2.67;;;;;;;;;;4965728;28;20022;-76
2023/01/13 14:26:13;;;;;;;9.75;2.90;;;;;;;;;;4967692;28;20024;-76
2023/01/13 14:28:40;;;;;;;4.45;2.28;;;;;;;;;;4969366;28;20071;-75
2023/01/13 14:31:07;;;;;;;6.43;2.08;;;;;;;;;;4964199;28;20034;-75
2023/01/13 14:33:37;;;;;;;9.18;2.00;;;;;;;;;;4965192;28;20023;-77
2023/01/13 14:36:05;;;;;;;;;;;;;;;;;;4971274;28;20499;-76
2023/01/13 14:38:31;;;;;;;4.40;1.63;;;;;;;;;;4968617;28;19968;-76
2023/01/13 14:40:57;;;;;;;4.03;1.90;;;;;;;;;;4985741;28;20561;-76
2023/01/13 14:43:27;;;;;;;3.08;1.08;;;;;;;;;;4973536;28;20038;-75
2023/01/13 14:45:58;;;;;;;4.00;1.52;;;;;;;;;;4974595;28;20023;-74
2023/01/13 14:48:34;;;;;;;4.80;1.48;;;;;;;;;;4974870;28;20556;-75
2023/01/13 14:51:04;;;;;;;6.60;1.70;;;;;;;;;;4971999;28;20109;-75
2023/01/13 14:53:37;;;;;;;;;;;;;;;;;;4972226;28;20073;-76
2023/01/13 14:56:42;;;;;;;5.43;2.70;;;;;;;;;;4973905;28;20434;-77
2023/01/13 14:59:46;;;;;;;6.05;2.03;;;;;;;;;;4969798;28;20027;-75
2023/01/13 15:02:34;;;;;;;4.35;2.40;;;;;;;;;;4968233;28;20026;-76
2023/01/13 15:05:26;;;;;;;8.90;2.90;;;;;;;;;;4973874;28;20034;-76
2023/01/13 15:08:00;;;;;;;7.05;2.83;;;;;;;;;;4973999;28;20035;-76
2023/01/13 15:10:32;;;;;;;6.30;2.55;;;;;;;;;;4975435;28;20019;-75
2023/01/13 15:13:02;;;;;;;7.05;3.47;;;;;;;;;;4974097;28;20065;-75
2023/01/13 15:15:34;;;;;;;13.35;3.72;;;;;;;;;;4989767;28;20050;-75
2023/01/13 15:18:02;;;;;;;8.43;3.22;;;;;;;;;;4970557;28;20062;-74
2023/01/13 15:20:30;;;;;;;7.32;3.30;;;;;;;;;;4972849;28;20516;-76
2023/01/13 15:22:58;;;;;;;11.30;3.13;;;;;;;;;;4975493;28;20026;-74
2023/01/13 15:25:31;;;;;;;6.13;2.88;;;;;;;;;;4980205;28;20046;-74
2023/01/13 15:27:57;;;;;;;9.70;3.55;;;;;;;;;;4977816;28;20034;-75
2023/01/13 15:30:24;;;;;;;7.43;3.85;;;;;;;;;;4976869;28;20041;-76
2023/01/13 15:32:51;;;;;;;12.70;3.97;;;;;;;;;;4973332;28;20035;-76
2023/01/13 15:35:18;;;;;;;9.60;4.15;;;;;;;;;;4974304;28;20041;-76
2023/01/13 15:37:47;;;;;;;7.22;2.92;;;;;;;;;;4970301;28;20050;-75
2023/01/13 15:40:16;;;;;;;7.68;3.13;;;;;;;;;;4973273;28;20052;-76
2023/01/13 15:48:11;;;;;;;10.88;2.20;;;;;;;;;;4973615;28;20061;-75
2023/01/13 15:50:36;;;;;;;8.13;3.33;;;;;;;;;;4988460;28;20049;-75
2023/01/13 15:53:02;;;;;;;16.00;3.58;;;;;;;;;;4972647;28;20106;-76
2023/01/13 15:55:28;;;;;;;9.50;3.13;;;;;;;;;;4971628;28;20078;-75
2023/01/13 15:57:56;;;;;;;10.85;2.65;;;;;;;;;;4972724;28;20025;-76
2023/01/13 16:00:22;;;;;;;6.95;2.10;;;;;;;;;;4974331;28;20126;-75
2023/01/13 16:02:49;;;;;;;8.07;2.40;;;;;;;;;;4972680;28;20553;-76
2023/01/13 16:05:14;;;;;;;7.97;2.53;;;;;;;;;;4971002;28;20030;-76
2023/01/13 16:07:40;;;;;;;5.22;2.10;;;;;;;;;;4973439;28;20505;-75
2023/01/13 16:10:14;;;;;;;6.22;2.30;;;;;;;;;;4967634;28;20097;-75
2023/01/13 16:12:39;;;;;;;10.23;4.80;;;;;;;;;;4976391;28;20482;-75
2023/01/13 16:15:07;;;;;;;11.23;4.13;;;;;;;;;;4975088;28;20023;-74
2023/01/13 16:17:34;;;;;;;14.40;6.18;;;;;;;;;;4975637;28;20019;-74
2023/01/13 16:20:00;;;;;;;10.65;4.35;;;;;;;;;;4973456;28;20035;-75
2023/01/13 16:22:25;;;;;;;11.57;3.75;;;;;;;;;;4986150;28;20122;-74
2023/01/13 16:24:51;;;;;;;9.05;3.42;;;;;;;;;;4975004;28;20121;-74
2023/01/13 16:27:22;;;;;;;5.25;2.22;;;;;;;;;;4986571;28;20094;-73
2023/01/13 16:29:49;;;;;;;6.28;2.10;;;;;;;;;;4974802;28;20038;-77
2023/01/13 16:32:15;;;;;;;9.40;2.60;;;;;;;;;;4975224;28;20026;-75
2023/01/13 16:34:41;;;;;;;6.53;2.60;;;;;;;;;;4975122;28;20045;-74